KBCE/BCE METAR and TAF weather

Enter ICAO airport designator
Station Type Date Time Source
KBCE METAR 2020/08/15 15:53 UTC NOAA

KBCE 151553Z AUTO VRB03KT 10SM CLR 24/M03 A3046 RMK AO2 SLP178 T02441028 $


Station Type Date Time Source
KBCE Decoded METAR 2020/08/15 15:53 UTC NOAA

BRYCE CANYON AIRPORT, UT, United States (KBCE) 37-42N 112-09W 2312M
Aug 15, 2020 - 11:53 AM EDT / 2020.08.15 1553 UTC
Wind: Variable at 3 MPH (3 KT):0
Visibility: 10 mile(s):0
Sky conditions: clear
Temperature: 75.9 F (24.4 C)
Dew Point: 27.0 F (-2.8 C)
Relative Humidity: 16%
Pressure (altimeter): 30.46 in. Hg (1031 hPa)
ob: KBCE 151553Z AUTO VRB03KT 10SM CLR 24/M03 A3046 RMK AO2 SLP178 T02441028
cycle: 16

Station Type Date Time Source
KBCE TAF 2020/08/15 12:22 UTC NOAA

TAF KBCE 151120Z 1512/1612 28006KT P6SM FEW120
FM151800 34008G14KT P6SM SCT120
FM160200 32006KT P6SM FEW120

Example: see airport list